Time;durP1;ratioP1;P1;durP2;ratioP2;P2;SDS_P1;SDS_P2;PMS_P1;PMS_P2;Temp;Humidity;BMP_temperature;BMP_pressure;BME280_temperature;BME280_humidity;BME280_pressure;Samples;Min_cycle;Max_cycle;Signal;HPM_P1;HPM_P2
2023/04/28 00:01:35;;;;;;;4.63;3.22;;;;;;;;;;8256662;28;20038;-70
2023/04/28 00:05:35;;;;;;;8.93;3.15;;;;;;;;;;8252686;28;20030;-70
2023/04/28 00:09:35;;;;;;;5.28;2.75;;;;;;;;;;8255007;28;20029;-69
2023/04/28 00:13:36;;;;;;;6.13;2.88;;;;;;;;;;8253538;28;20037;-70
2023/04/28 00:17:36;;;;;;;6.53;3.05;;;;;;;;;;8275346;28;20056;-70
2023/04/28 00:21:36;;;;;;;58.30;13.95;;;;;;;;;;8288686;28;20127;-70
2023/04/28 00:25:36;;;;;;;41.85;12.48;;;;;;;;;;8288085;28;20040;-70
2023/04/28 00:29:36;;;;;;;47.15;13.00;;;;;;;;;;8288727;28;20127;-70
2023/04/28 00:33:37;;;;;;;37.10;10.65;;;;;;;;;;8288027;28;20037;-70
2023/04/28 00:37:38;;;;;;;25.20;8.13;;;;;;;;;;8284149;28;20033;-70
2023/04/28 00:41:38;;;;;;;22.35;7.85;;;;;;;;;;8288499;28;20056;-69
2023/04/28 00:45:38;;;;;;;11.47;4.90;;;;;;;;;;8284574;28;20037;-70
2023/04/28 00:49:38;;;;;;;10.45;4.57;;;;;;;;;;8286456;28;20112;-70
2023/04/28 00:53:39;;;;;;;6.63;3.72;;;;;;;;;;8285333;28;20036;-70
2023/04/28 00:57:39;;;;;;;8.30;3.50;;;;;;;;;;8286694;28;20510;-70
2023/04/28 01:01:39;;;;;;;9.27;3.80;;;;;;;;;;8286706;28;20276;-70
2023/04/28 01:05:39;;;;;;;6.80;3.53;;;;;;;;;;8286802;28;20037;-70
2023/04/28 01:09:40;;;;;;;5.72;2.92;;;;;;;;;;8285033;28;20029;-70
2023/04/28 01:13:40;;;;;;;7.20;3.75;;;;;;;;;;8281674;28;20479;-70
2023/04/28 01:17:40;;;;;;;5.00;2.95;;;;;;;;;;8283437;28;20068;-70
2023/04/28 01:21:40;;;;;;;4.57;3.15;;;;;;;;;;8281388;28;20473;-70
2023/04/28 01:25:41;;;;;;;5.22;3.10;;;;;;;;;;8283126;28;20029;-70
2023/04/28 01:29:41;;;;;;;5.43;2.75;;;;;;;;;;8277591;28;20025;-70
2023/04/28 01:33:41;;;;;;;4.15;2.83;;;;;;;;;;8288885;28;20052;-70
2023/04/28 01:37:42;;;;;;;10.25;3.03;;;;;;;;;;8284599;28;20025;-71
2023/04/28 01:41:42;;;;;;;4.80;2.92;;;;;;;;;;8284783;28;20065;-71
2023/04/28 01:45:42;;;;;;;4.70;2.63;;;;;;;;;;8283661;28;20671;-70
2023/04/28 01:49:42;;;;;;;5.35;2.70;;;;;;;;;;8279045;28;20559;-70
2023/04/28 01:53:42;;;;;;;3.17;2.65;;;;;;;;;;8283316;28;20029;-70
2023/04/28 01:57:42;;;;;;;4.95;2.88;;;;;;;;;;8283952;28;20052;-70
2023/04/28 02:01:42;;;;;;;4.47;2.65;;;;;;;;;;8285087;28;20411;-71
2023/04/28 02:05:43;;;;;;;4.10;2.78;;;;;;;;;;8286108;28;20083;-70
2023/04/28 02:09:43;;;;;;;4.28;2.47;;;;;;;;;;8282926;28;20029;-71
2023/04/28 02:13:43;;;;;;;4.82;2.53;;;;;;;;;;8285597;28;20102;-71
2023/04/28 02:17:43;;;;;;;3.42;2.50;;;;;;;;;;8283968;28;20686;-70
2023/04/28 02:21:44;;;;;;;4.47;2.50;;;;;;;;;;8285026;28;20025;-70
2023/04/28 02:25:44;;;;;;;5.75;2.55;;;;;;;;;;8284387;28;20049;-70
2023/04/28 02:29:44;;;;;;;3.00;2.70;;;;;;;;;;8281700;28;20147;-70
2023/04/28 02:33:44;;;;;;;8.00;2.75;;;;;;;;;;8284182;28;20038;-70
2023/04/28 02:37:45;;;;;;;7.37;2.90;;;;;;;;;;8284247;28;20017;-70
2023/04/28 02:41:45;;;;;;;4.03;2.65;;;;;;;;;;8276507;28;20284;-70
2023/04/28 02:45:45;;;;;;;4.65;2.60;;;;;;;;;;8282221;28;20123;-71
2023/04/28 02:49:45;;;;;;;4.55;2.45;;;;;;;;;;8282510;28;20445;-70
2023/04/28 02:53:46;;;;;;;3.72;2.60;;;;;;;;;;8282228;28;20528;-70
2023/04/28 02:57:48;;;;;;;3.40;2.80;;;;;;;;;;8282923;28;20057;-71
2023/04/28 03:01:48;;;;;;;3.75;2.45;;;;;;;;;;8281292;28;20506;-71
2023/04/28 03:05:49;;;;;;;3.75;2.20;;;;;;;;;;8283290;28;20036;-70
2023/04/28 03:09:49;;;;;;;2.38;2.08;;;;;;;;;;8284323;28;20029;-71
2023/04/28 03:13:49;;;;;;;3.03;1.73;;;;;;;;;;8280767;28;20121;-71
2023/04/28 03:17:49;;;;;;;4.05;2.10;;;;;;;;;;8283722;28;20708;-70
2023/04/28 03:21:49;;;;;;;3.33;1.70;;;;;;;;;;8284548;28;20020;-71
2023/04/28 03:25:50;;;;;;;3.33;1.77;;;;;;;;;;8283597;28;20028;-71
2023/04/28 03:29:50;;;;;;;2.53;2.10;;;;;;;;;;8281861;28;20548;-70
2023/04/28 03:33:50;;;;;;;6.00;2.20;;;;;;;;;;8283327;28;21105;-70
2023/04/28 03:37:50;;;;;;;3.60;1.67;;;;;;;;;;8284590;28;20101;-70
2023/04/28 03:41:51;;;;;;;2.08;1.90;;;;;;;;;;8286201;28;20059;-71
2023/04/28 03:45:51;;;;;;;3.58;2.30;;;;;;;;;;8288282;28;20048;-71
2023/04/28 03:49:51;;;;;;;3.83;2.60;;;;;;;;;;8290480;28;20021;-71
2023/04/28 03:53:51;;;;;;;4.30;2.72;;;;;;;;;;8290302;28;20032;-71
2023/04/28 03:57:52;;;;;;;3.55;2.00;;;;;;;;;;8284543;28;20029;-71
2023/04/28 04:01:52;;;;;;;3.00;1.97;;;;;;;;;;8289305;28;20037;-71
2023/04/28 04:05:53;;;;;;;3.65;2.00;;;;;;;;;;8288652;28;20029;-71
2023/04/28 04:09:54;;;;;;;2.83;2.17;;;;;;;;;;8284530;28;20031;-71
2023/04/28 04:13:54;;;;;;;2.95;2.05;;;;;;;;;;8289732;28;20025;-71
2023/04/28 04:17:54;;;;;;;3.33;2.42;;;;;;;;;;8285936;28;20033;-71
2023/04/28 04:21:54;;;;;;;3.83;2.85;;;;;;;;;;8289042;28;20056;-71
2023/04/28 04:25:54;;;;;;;4.13;2.60;;;;;;;;;;8285048;28;20025;-71
2023/04/28 04:29:54;;;;;;;4.95;2.38;;;;;;;;;;8285213;28;20021;-71
2023/04/28 04:33:55;;;;;;;4.78;2.60;;;;;;;;;;8284945;28;20679;-72
2023/04/28 04:37:55;;;;;;;3.10;2.20;;;;;;;;;;8287708;28;20060;-74
2023/04/28 04:41:56;;;;;;;6.60;2.10;;;;;;;;;;8286046;28;20052;-72
2023/04/28 04:45:56;;;;;;;4.03;2.17;;;;;;;;;;8287027;28;20286;-72
2023/04/28 04:49:56;;;;;;;4.95;2.70;;;;;;;;;;8281225;28;20558;-73
2023/04/28 04:53:57;;;;;;;3.35;2.58;;;;;;;;;;8283646;28;20029;-72
2023/04/28 04:57:57;;;;;;;3.08;2.40;;;;;;;;;;8289227;28;20026;-72
2023/04/28 05:01:57;;;;;;;3.72;2.45;;;;;;;;;;8282703;28;20132;-73
2023/04/28 05:05:57;;;;;;;5.68;2.78;;;;;;;;;;8286984;28;20474;-72
2023/04/28 05:09:57;;;;;;;6.68;2.80;;;;;;;;;;8283188;28;20033;-72
2023/04/28 05:13:58;;;;;;;4.60;2.43;;;;;;;;;;8282151;28;20069;-72
2023/04/28 05:17:58;;;;;;;3.70;2.55;;;;;;;;;;8286098;28;20041;-72
2023/04/28 05:21:59;;;;;;;2.53;2.10;;;;;;;;;;8286151;28;20053;-73
2023/04/28 05:26:00;;;;;;;3.50;2.05;;;;;;;;;;8290114;28;20342;-73
2023/04/28 05:30:00;;;;;;;3.03;2.05;;;;;;;;;;8286258;28;20025;-72
2023/04/28 05:34:00;;;;;;;3.45;2.20;;;;;;;;;;8285451;28;20509;-73
2023/04/28 05:38:00;;;;;;;5.10;2.30;;;;;;;;;;8285293;28;20581;-73
2023/04/28 05:42:02;;;;;;;4.73;3.00;;;;;;;;;;8286110;28;20237;-72
2023/04/28 05:46:02;;;;;;;6.95;3.45;;;;;;;;;;8285744;28;20276;-73
2023/04/28 05:50:03;;;;;;;121.00;6.33;;;;;;;;;;8285888;28;20917;-72
2023/04/28 05:54:03;;;;;;;87.83;6.10;;;;;;;;;;8283426;28;20136;-72
2023/04/28 05:58:03;;;;;;;5.63;3.78;;;;;;;;;;8285117;28;20820;-73
2023/04/28 06:02:03;;;;;;;4.35;3.08;;;;;;;;;;8285897;28;20029;-73
2023/04/28 06:06:04;;;;;;;3.83;3.25;;;;;;;;;;8287008;28;20033;-73
2023/04/28 06:10:05;;;;;;;4.28;3.42;;;;;;;;;;8280801;28;20034;-72
2023/04/28 06:14:05;;;;;;;4.65;3.85;;;;;;;;;;8283670;28;20882;-72
2023/04/28 06:18:06;;;;;;;22.48;4.38;;;;;;;;;;8278412;28;20029;-72
2023/04/28 06:22:06;;;;;;;8.27;3.50;;;;;;;;;;8282046;28;20022;-73
2023/04/28 06:26:07;;;;;;;13.68;4.13;;;;;;;;;;8286135;28;20080;-73
2023/04/28 06:30:07;;;;;;;6.05;3.78;;;;;;;;;;8273424;28;20124;-73
2023/04/28 06:34:07;;;;;;;5.00;3.80;;;;;;;;;;8280319;28;20514;-72
2023/04/28 06:38:07;;;;;;;4.20;3.40;;;;;;;;;;8276945;28;20029;-72
2023/04/28 06:42:08;;;;;;;5.37;3.50;;;;;;;;;;8265717;28;20030;-72
2023/04/28 06:46:08;;;;;;;8.10;3.97;;;;;;;;;;8280792;28;20029;-72
2023/04/28 06:50:09;;;;;;;38.95;5.35;;;;;;;;;;8284258;28;20021;-72
2023/04/28 06:54:10;;;;;;;4.88;4.10;;;;;;;;;;8284527;28;20125;-72
2023/04/28 06:58:10;;;;;;;4.20;3.53;;;;;;;;;;8284574;28;20025;-72
2023/04/28 07:02:10;;;;;;;4.25;3.85;;;;;;;;;;8281915;28;20056;-72
2023/04/28 07:06:11;;;;;;;7.53;4.30;;;;;;;;;;8280855;28;20136;-72
2023/04/28 07:10:12;;;;;;;4.00;3.60;;;;;;;;;;8281922;28;20049;-72
2023/04/28 07:14:12;;;;;;;3.17;2.80;;;;;;;;;;8283598;28;20041;-73
2023/04/28 07:18:12;;;;;;;2.15;1.95;;;;;;;;;;8288138;28;20753;-73
2023/04/28 07:22:12;;;;;;;2.25;2.00;;;;;;;;;;8284800;28;20018;-73
2023/04/28 07:26:15;;;;;;;3.20;1.98;;;;;;;;;;8288691;28;20022;-72
2023/04/28 07:30:15;;;;;;;2.70;2.40;;;;;;;;;;8288501;28;20136;-72
2023/04/28 07:34:15;;;;;;;2.65;2.25;;;;;;;;;;8291037;28;20505;-73
2023/04/28 07:38:15;;;;;;;2.33;2.08;;;;;;;;;;8287872;28;20103;-73
2023/04/28 07:42:17;;;;;;;3.72;2.70;;;;;;;;;;8288983;28;20538;-73
2023/04/28 07:46:18;;;;;;;3.45;2.17;;;;;;;;;;8288958;28;20029;-73
2023/04/28 07:50:18;;;;;;;2.83;1.90;;;;;;;;;;8289067;28;20231;-72
2023/04/28 07:54:19;;;;;;;1.60;1.42;;;;;;;;;;8289143;28;20045;-73
2023/04/28 07:58:19;;;;;;;2.55;2.35;;;;;;;;;;8285468;28;20017;-73
2023/04/28 08:02:19;;;;;;;4.07;2.10;;;;;;;;;;8289159;28;20037;-73
2023/04/28 08:06:19;;;;;;;2.83;2.03;;;;;;;;;;8287786;28;20306;-73
2023/04/28 08:10:20;;;;;;;2.78;2.10;;;;;;;;;;8286821;28;20083;-73
2023/04/28 08:14:20;;;;;;;2.20;2.00;;;;;;;;;;8283760;28;20025;-73
2023/04/28 08:18:20;;;;;;;2.28;2.08;;;;;;;;;;8287841;28;20283;-73
2023/04/28 08:22:20;;;;;;;1.17;1.07;;;;;;;;;;8279058;28;20498;-73
2023/04/28 08:26:21;;;;;;;0.80;0.80;;;;;;;;;;8283621;28;20776;-73
2023/04/28 08:30:21;;;;;;;0.80;0.60;;;;;;;;;;8285215;28;20446;-73
2023/04/28 08:34:21;;;;;;;0.77;0.57;;;;;;;;;;8283943;28;20064;-73
2023/04/28 08:38:23;;;;;;;0.60;0.60;;;;;;;;;;8286260;28;20091;-73
2023/04/28 08:42:25;;;;;;;1.00;0.60;;;;;;;;;;8286327;28;20670;-73
2023/04/28 08:46:26;;;;;;;2.75;0.80;;;;;;;;;;8288051;28;20064;-74
2023/04/28 08:50:28;;;;;;;2.15;0.70;;;;;;;;;;8286306;28;20666;-74
2023/04/28 08:54:34;;;;;;;0.98;0.50;;;;;;;;;;8283800;28;20060;-73
2023/04/28 08:58:36;;;;;;;1.40;0.60;;;;;;;;;;8287043;28;21247;-74
2023/04/28 09:02:36;;;;;;;1.30;0.60;;;;;;;;;;8286074;28;20038;-74
2023/04/28 09:06:37;;;;;;;0.60;0.60;;;;;;;;;;8287614;28;20044;-74
2023/04/28 09:10:37;;;;;;;0.73;0.70;;;;;;;;;;8281968;28;20029;-74
2023/04/28 09:14:38;;;;;;;0.80;0.80;;;;;;;;;;8271329;28;20073;-74
2023/04/28 09:18:38;;;;;;;1.08;1.00;;;;;;;;;;8281551;28;20040;-74
2023/04/28 09:22:38;;;;;;;1.08;1.00;;;;;;;;;;8279733;28;20029;-73
2023/04/28 09:26:49;;;;;;;2.10;1.90;;;;;;;;;;8281868;28;20033;-73
2023/04/28 09:30:49;;;;;;;4.53;2.30;;;;;;;;;;8273107;28;20288;-73
2023/04/28 09:34:50;;;;;;;7.63;2.85;;;;;;;;;;8278746;28;20030;-73
2023/04/28 09:38:51;;;;;;;5.57;4.90;;;;;;;;;;8280963;28;20032;-74
2023/04/28 09:42:51;;;;;;;7.13;5.55;;;;;;;;;;8277409;28;20497;-73
2023/04/28 09:46:51;;;;;;;5.90;5.00;;;;;;;;;;8278799;28;20147;-73
2023/04/28 09:50:53;;;;;;;6.13;5.35;;;;;;;;;;8279291;28;20063;-73
2023/04/28 09:54:54;;;;;;;5.47;4.80;;;;;;;;;;8277382;28;20068;-73
2023/04/28 09:58:55;;;;;;;5.88;5.28;;;;;;;;;;8274728;28;20839;-73
2023/04/28 10:02:56;;;;;;;6.78;5.53;;;;;;;;;;8281556;28;20037;-73
2023/04/28 10:06:56;;;;;;;6.22;5.20;;;;;;;;;;8284920;28;20060;-73
2023/04/28 10:10:57;;;;;;;4.90;4.32;;;;;;;;;;8281386;28;20433;-73
2023/04/28 10:14:58;;;;;;;6.45;5.30;;;;;;;;;;8272082;28;20036;-73
2023/04/28 10:19:00;;;;;;;7.07;5.82;;;;;;;;;;8274811;28;20048;-73
2023/04/28 10:23:09;;;;;;;8.20;6.63;;;;;;;;;;8279298;28;20108;-75
2023/04/28 10:27:09;;;;;;;8.27;6.85;;;;;;;;;;8283927;28;20120;-73
2023/04/28 10:31:16;;;;;;;7.25;6.55;;;;;;;;;;8270853;28;20898;-72
2023/04/28 10:35:32;;;;;;;9.77;7.07;;;;;;;;;;8281995;28;20500;-72
2023/04/28 10:39:32;;;;;;;6.70;6.07;;;;;;;;;;8281079;28;20087;-72
2023/04/28 10:43:33;;;;;;;7.18;6.47;;;;;;;;;;8272687;28;20591;-76
2023/04/28 10:47:53;;;;;;;7.47;5.88;;;;;;;;;;8272312;28;20066;-73
2023/04/28 10:51:53;;;;;;;8.15;5.75;;;;;;;;;;8271689;28;20026;-73
2023/04/28 10:56:04;;;;;;;7.18;5.68;;;;;;;;;;8278242;28;20560;-72
2023/04/28 11:00:23;;;;;;;7.68;6.72;;;;;;;;;;8282148;28;20033;-73
2023/04/28 11:04:23;;;;;;;6.53;5.93;;;;;;;;;;8288628;28;20078;-73
2023/04/28 11:08:23;;;;;;;7.93;6.97;;;;;;;;;;8288250;28;20166;-73
2023/04/28 11:12:23;;;;;;;9.27;6.63;;;;;;;;;;8286816;28;20394;-73
2023/04/28 11:16:24;;;;;;;8.48;6.15;;;;;;;;;;8283537;28;20045;-73
2023/04/28 11:20:25;;;;;;;7.15;6.43;;;;;;;;;;8288819;28;20061;-73
2023/04/28 11:24:27;;;;;;;8.07;5.57;;;;;;;;;;8290888;28;20788;-74
2023/04/28 11:28:27;;;;;;;5.75;5.15;;;;;;;;;;8288501;28;20478;-73
2023/04/28 11:32:31;;;;;;;6.00;5.30;;;;;;;;;;8287308;28;20115;-73
2023/04/28 11:36:34;;;;;;;5.72;4.55;;;;;;;;;;8290349;28;20021;-73
2023/04/28 11:40:34;;;;;;;4.10;3.35;;;;;;;;;;8288987;28;20088;-74
2023/04/28 11:44:34;;;;;;;5.03;4.53;;;;;;;;;;8286089;28;20021;-74
2023/04/28 11:48:35;;;;;;;4.68;3.65;;;;;;;;;;8283061;28;20288;-73
2023/04/28 11:52:35;;;;;;;1.60;0.83;;;;;;;;;;8279729;28;20033;-73
2023/04/28 11:56:36;;;;;;;0.60;0.60;;;;;;;;;;8269462;28;20280;-73
2023/04/28 12:00:37;;;;;;;0.95;0.57;;;;;;;;;;8281287;28;20068;-73
2023/04/28 12:04:38;;;;;;;0.90;0.60;;;;;;;;;;8283659;28;20378;-73
2023/04/28 12:08:38;;;;;;;1.30;0.50;;;;;;;;;;8280374;28;20103;-73
2023/04/28 12:12:39;;;;;;;0.63;0.52;;;;;;;;;;8268152;28;20033;-73
2023/04/28 12:16:42;;;;;;;2.15;1.15;;;;;;;;;;8297193;28;20376;-73
2023/04/28 12:20:42;;;;;;;;;;;;;;;;;;8283475;28;20063;-73
2023/04/28 12:24:44;;;;;;;0.50;0.50;;;;;;;;;;8284837;28;19913;-73
2023/04/28 12:28:44;;;;;;;0.40;0.40;;;;;;;;;;8269537;28;20022;-73
2023/04/28 12:32:45;;;;;;;0.40;0.40;;;;;;;;;;8274008;28;20231;-73
2023/04/28 12:36:45;;;;;;;0.75;0.40;;;;;;;;;;8266666;28;20030;-73
2023/04/28 12:40:46;;;;;;;3.40;0.50;;;;;;;;;;8241599;28;1021130;-73
2023/04/28 12:44:46;;;;;;;4.97;0.40;;;;;;;;;;8281051;28;20025;-72
2023/04/28 12:48:46;;;;;;;0.30;0.30;;;;;;;;;;8283257;28;20398;-73
2023/04/28 12:52:46;;;;;;;0.40;0.40;;;;;;;;;;8277462;28;20034;-73
2023/04/28 12:56:47;;;;;;;1.02;0.40;;;;;;;;;;8274611;28;20032;-73
2023/04/28 13:00:47;;;;;;;0.68;0.43;;;;;;;;;;8271270;28;20409;-73
2023/04/28 13:04:48;;;;;;;0.40;0.40;;;;;;;;;;8288491;28;20033;-73
2023/04/28 13:08:48;;;;;;;0.45;0.45;;;;;;;;;;8286267;28;20061;-72
2023/04/28 13:12:48;;;;;;;2.15;0.50;;;;;;;;;;8286379;28;20030;-73
2023/04/28 13:16:48;;;;;;;2.10;0.40;;;;;;;;;;8287191;28;20958;-73
2023/04/28 13:20:48;;;;;;;1.08;0.45;;;;;;;;;;8285462;28;20037;-73
2023/04/28 13:24:49;;;;;;;0.40;0.40;;;;;;;;;;8286037;28;20023;-73
2023/04/28 13:28:50;;;;;;;0.38;0.38;;;;;;;;;;8284035;28;20026;-73
2023/04/28 13:32:50;;;;;;;0.55;0.55;;;;;;;;;;8286714;28;20144;-73
2023/04/28 13:36:52;;;;;;;0.52;0.50;;;;;;;;;;8286343;28;20060;-73
2023/04/28 13:40:52;;;;;;;1.15;0.50;;;;;;;;;;8284714;28;20029;-73
2023/04/28 13:44:53;;;;;;;0.65;0.40;;;;;;;;;;8282671;28;20051;-72
2023/04/28 13:48:53;;;;;;;0.50;0.50;;;;;;;;;;8284567;28;20030;-72
2023/04/28 13:52:53;;;;;;;1.27;0.40;;;;;;;;;;8288961;28;20079;-73
2023/04/28 13:56:55;;;;;;;1.52;0.45;;;;;;;;;;8286200;28;20108;-73
2023/04/28 14:00:55;;;;;;;2.67;0.50;;;;;;;;;;8283394;28;20033;-73
2023/04/28 14:04:56;;;;;;;0.60;0.57;;;;;;;;;;8285061;28;20141;-73
2023/04/28 14:08:56;;;;;;;5.80;0.50;;;;;;;;;;8285720;28;20033;-73
2023/04/28 14:12:57;;;;;;;0.90;0.43;;;;;;;;;;8286135;28;20391;-73
2023/04/28 14:16:57;;;;;;;0.95;0.60;;;;;;;;;;8284613;28;20619;-73
2023/04/28 14:20:58;;;;;;;0.85;0.50;;;;;;;;;;8285116;28;20489;-74
2023/04/28 14:24:58;;;;;;;0.50;0.50;;;;;;;;;;8283761;28;20032;-73
2023/04/28 14:28:59;;;;;;;0.73;0.40;;;;;;;;;;8284401;28;20280;-74
2023/04/28 14:33:00;;;;;;;0.52;0.50;;;;;;;;;;8285050;28;20034;-74
2023/04/28 14:37:00;;;;;;;1.70;0.50;;;;;;;;;;8284422;28;20879;-74
2023/04/28 14:41:00;;;;;;;0.63;0.40;;;;;;;;;;8280040;28;20060;-74
2023/04/28 14:45:01;;;;;;;1.00;0.50;;;;;;;;;;8283352;28;20099;-74
2023/04/28 14:49:02;;;;;;;0.43;0.40;;;;;;;;;;8283359;28;20076;-75
2023/04/28 14:53:06;;;;;;;2.72;0.70;;;;;;;;;;8284189;28;20159;-74
2023/04/28 14:57:07;;;;;;;0.65;0.40;;;;;;;;;;8283974;28;20037;-75
2023/04/28 15:01:08;;;;;;;0.60;0.60;;;;;;;;;;8271162;28;21551;-74
2023/04/28 15:05:10;;;;;;;0.65;0.57;;;;;;;;;;8275479;28;20029;-74
2023/04/28 15:09:10;;;;;;;0.75;0.55;;;;;;;;;;8278396;28;20667;-74
2023/04/28 15:13:10;;;;;;;1.05;0.55;;;;;;;;;;8279097;28;20030;-74
2023/04/28 15:17:11;;;;;;;2.00;0.60;;;;;;;;;;8271899;28;20046;-74
2023/04/28 15:21:11;;;;;;;1.27;0.50;;;;;;;;;;8279710;28;20035;-74
2023/04/28 15:25:11;;;;;;;2.17;0.60;;;;;;;;;;8275353;28;20032;-73
2023/04/28 15:29:11;;;;;;;2.03;0.70;;;;;;;;;;8264330;28;20030;-73
2023/04/28 15:33:16;;;;;;;0.50;0.50;;;;;;;;;;8276428;28;20037;-73
2023/04/28 15:37:35;;;;;;;1.00;0.50;;;;;;;;;;8275221;28;20056;-73
2023/04/28 15:41:35;;;;;;;1.35;0.50;;;;;;;;;;8282162;28;20029;-73
2023/04/28 15:45:36;;;;;;;0.57;0.50;;;;;;;;;;8285515;28;20156;-73
2023/04/28 15:49:36;;;;;;;2.53;0.47;;;;;;;;;;8287751;28;20380;-73
2023/04/28 15:53:37;;;;;;;2.05;0.63;;;;;;;;;;8285651;28;20030;-73
2023/04/28 15:57:37;;;;;;;0.63;0.57;;;;;;;;;;8284510;28;20136;-73
2023/04/28 16:01:37;;;;;;;0.68;0.40;;;;;;;;;;8287744;28;20037;-73
2023/04/28 16:05:37;;;;;;;0.55;0.50;;;;;;;;;;8286210;28;20553;-73
2023/04/28 16:09:38;;;;;;;0.65;0.40;;;;;;;;;;8289325;28;20048;-73
2023/04/28 16:13:38;;;;;;;0.65;0.57;;;;;;;;;;8286288;28;20025;-72
2023/04/28 16:17:39;;;;;;;0.50;0.50;;;;;;;;;;8287889;28;20561;-73
2023/04/28 16:21:39;;;;;;;0.50;0.50;;;;;;;;;;8288266;28;20033;-73
2023/04/28 16:25:40;;;;;;;2.67;0.50;;;;;;;;;;8289401;28;20552;-72
2023/04/28 16:29:40;;;;;;;0.60;0.60;;;;;;;;;;8287970;28;20030;-73
2023/04/28 16:33:41;;;;;;;0.50;0.50;;;;;;;;;;8288867;28;20042;-72
2023/04/28 16:37:42;;;;;;;0.60;0.55;;;;;;;;;;8286047;28;20026;-72
2023/04/28 16:41:42;;;;;;;0.50;0.50;;;;;;;;;;8286994;28;20040;-72
2023/04/28 16:45:42;;;;;;;0.80;0.60;;;;;;;;;;8288252;28;20142;-72
2023/04/28 16:49:42;;;;;;;2.05;0.50;;;;;;;;;;8282730;28;20020;-72
2023/04/28 16:53:43;;;;;;;1.52;0.60;;;;;;;;;;8288680;28;20024;-72
2023/04/28 16:57:43;;;;;;;0.70;0.55;;;;;;;;;;8281194;28;20057;-73
2023/04/28 17:01:44;;;;;;;0.73;0.50;;;;;;;;;;8283239;28;20045;-72
2023/04/28 17:05:47;;;;;;;2.05;0.77;;;;;;;;;;8285710;28;20595;-72
2023/04/28 17:09:47;;;;;;;0.88;0.50;;;;;;;;;;8284686;28;20587;-72
2023/04/28 17:13:47;;;;;;;1.85;0.55;;;;;;;;;;8283401;28;20029;-72
2023/04/28 17:17:48;;;;;;;1.65;0.50;;;;;;;;;;8280948;28;20045;-72
2023/04/28 17:21:51;;;;;;;2.88;0.60;;;;;;;;;;8283172;28;20033;-73
2023/04/28 17:25:51;;;;;;;0.83;0.50;;;;;;;;;;8282514;28;20021;-72
2023/04/28 17:29:51;;;;;;;4.15;0.73;;;;;;;;;;8284153;28;20024;-72
2023/04/28 17:33:52;;;;;;;0.70;0.60;;;;;;;;;;8282004;28;20115;-72
2023/04/28 17:37:53;;;;;;;1.13;0.63;;;;;;;;;;8296414;28;20036;-72
2023/04/28 17:41:56;;;;;;;1.00;0.75;;;;;;;;;;8279327;28;20671;-72
2023/04/28 17:45:56;;;;;;;2.83;0.68;;;;;;;;;;8281858;28;20481;-72
2023/04/28 17:49:56;;;;;;;0.55;0.55;;;;;;;;;;8281785;28;20090;-72
2023/04/28 17:53:57;;;;;;;0.60;0.60;;;;;;;;;;8283625;28;20072;-71
2023/04/28 17:57:57;;;;;;;2.42;0.70;;;;;;;;;;8287802;28;20122;-72
2023/04/28 18:01:57;;;;;;;0.65;0.65;;;;;;;;;;8278462;28;20589;-72
2023/04/28 18:05:58;;;;;;;3.20;0.70;;;;;;;;;;8282006;28;20778;-73
2023/04/28 18:09:58;;;;;;;0.60;0.60;;;;;;;;;;8280829;28;20168;-73
2023/04/28 18:13:58;;;;;;;1.00;0.70;;;;;;;;;;8284336;28;20029;-73
2023/04/28 18:17:58;;;;;;;1.15;0.65;;;;;;;;;;8284955;28;20044;-73
2023/04/28 18:21:59;;;;;;;1.50;0.80;;;;;;;;;;8279676;28;20029;-72
2023/04/28 18:25:59;;;;;;;0.60;0.60;;;;;;;;;;8286087;28;20723;-73
2023/04/28 18:29:59;;;;;;;0.60;0.60;;;;;;;;;;8282065;28;20275;-72
2023/04/28 18:33:59;;;;;;;1.15;0.77;;;;;;;;;;8286011;28;20156;-72
2023/04/28 18:38:00;;;;;;;1.00;0.60;;;;;;;;;;8282802;28;20140;-72
2023/04/28 18:42:02;;;;;;;4.10;0.80;;;;;;;;;;8281749;28;20151;-72
2023/04/28 18:46:05;;;;;;;3.03;0.90;;;;;;;;;;8277394;28;20040;-73
2023/04/28 18:50:05;;;;;;;4.13;1.15;;;;;;;;;;8284998;28;20018;-72
2023/04/28 18:54:06;;;;;;;1.88;0.75;;;;;;;;;;8282919;28;20033;-73
2023/04/28 18:58:07;;;;;;;1.70;0.60;;;;;;;;;;8279839;28;20754;-72
2023/04/28 19:02:07;;;;;;;0.60;0.60;;;;;;;;;;8280635;28;20494;-73
2023/04/28 19:06:08;;;;;;;1.30;0.73;;;;;;;;;;8280540;28;20025;-72
2023/04/28 19:10:08;;;;;;;0.80;0.80;;;;;;;;;;8291795;28;20593;-72
2023/04/28 19:14:09;;;;;;;0.85;0.80;;;;;;;;;;8285106;28;20029;-72
2023/04/28 19:18:09;;;;;;;1.55;0.90;;;;;;;;;;8287899;28;20593;-72
2023/04/28 19:22:28;;;;;;;2.63;0.80;;;;;;;;;;8286414;28;20427;-72
2023/04/28 19:26:28;;;;;;;2.55;0.93;;;;;;;;;;8287618;28;20092;-71
2023/04/28 19:30:28;;;;;;;1.30;0.80;;;;;;;;;;8284622;28;20534;-71
2023/04/28 19:34:30;;;;;;;4.30;1.00;;;;;;;;;;8287581;28;20021;-71
2023/04/28 19:38:30;;;;;;;2.65;0.90;;;;;;;;;;8284126;28;20029;-71
2023/04/28 19:42:31;;;;;;;1.67;1.00;;;;;;;;;;8287123;28;20034;-71
2023/04/28 19:46:32;;;;;;;2.50;1.00;;;;;;;;;;8285906;28;20184;-70
2023/04/28 19:50:32;;;;;;;4.28;1.10;;;;;;;;;;8287285;28;20049;-71
2023/04/28 19:54:32;;;;;;;0.90;0.90;;;;;;;;;;8285437;28;20032;-71
2023/04/28 19:58:32;;;;;;;2.67;0.90;;;;;;;;;;8276459;28;20025;-71
2023/04/28 20:02:33;;;;;;;4.85;1.27;;;;;;;;;;8287386;28;20029;-71
2023/04/28 20:06:33;;;;;;;2.53;1.13;;;;;;;;;;8292968;28;20014;-71
2023/04/28 20:10:33;;;;;;;6.40;1.33;;;;;;;;;;8286167;28;20822;-71
2023/04/28 20:14:33;;;;;;;5.25;1.00;;;;;;;;;;8287472;28;20379;-71
2023/04/28 20:18:34;;;;;;;2.50;1.05;;;;;;;;;;8284494;28;20431;-71
2023/04/28 20:22:35;;;;;;;2.92;1.17;;;;;;;;;;8285786;28;20620;-71
2023/04/28 20:26:35;;;;;;;1.88;1.00;;;;;;;;;;8285912;28;20021;-71
2023/04/28 20:30:35;;;;;;;0.98;0.95;;;;;;;;;;8285499;28;20865;-71
2023/04/28 20:34:36;;;;;;;2.70;1.00;;;;;;;;;;8287642;28;20033;-72
2023/04/28 20:38:36;;;;;;;0.90;0.90;;;;;;;;;;8280701;28;20040;-71
2023/04/28 20:42:36;;;;;;;1.97;0.83;;;;;;;;;;8282716;28;20183;-72
2023/04/28 20:46:36;;;;;;;1.67;0.85;;;;;;;;;;8284385;28;20486;-71
2023/04/28 20:50:37;;;;;;;3.72;1.20;;;;;;;;;;8279642;28;20029;-71
2023/04/28 20:54:38;;;;;;;1.23;1.10;;;;;;;;;;8287244;28;20033;-71
2023/04/28 20:58:41;;;;;;;4.45;1.33;;;;;;;;;;8283878;28;20022;-72
2023/04/28 21:02:41;;;;;;;3.80;1.50;;;;;;;;;;8278970;28;20928;-71
2023/04/28 21:06:41;;;;;;;1.70;1.20;;;;;;;;;;8284956;28;20055;-71
2023/04/28 21:10:42;;;;;;;2.08;1.70;;;;;;;;;;8284575;28;20034;-71
2023/04/28 21:14:42;;;;;;;2.08;1.30;;;;;;;;;;8287470;28;20041;-71
2023/04/28 21:18:43;;;;;;;2.22;1.30;;;;;;;;;;8282497;28;20043;-71
2023/04/28 21:22:43;;;;;;;2.20;1.45;;;;;;;;;;8285566;28;20033;-71
2023/04/28 21:26:43;;;;;;;1.45;1.20;;;;;;;;;;8285497;28;20040;-71
2023/04/28 21:30:44;;;;;;;3.38;1.63;;;;;;;;;;8278796;28;20038;-72
2023/04/28 21:34:49;;;;;;;1.77;1.40;;;;;;;;;;8249017;28;20034;-71
2023/04/28 21:38:50;;;;;;;4.68;1.75;;;;;;;;;;8249298;28;20481;-71
2023/04/28 21:42:50;;;;;;;2.80;2.08;;;;;;;;;;8248784;28;20123;-71
2023/04/28 21:46:50;;;;;;;3.08;2.10;;;;;;;;;;8254709;28;20033;-72
2023/04/28 21:50:51;;;;;;;2.60;1.88;;;;;;;;;;8250335;28;20185;-72
2023/04/28 21:54:51;;;;;;;3.80;1.80;;;;;;;;;;8248851;28;20037;-72
2023/04/28 21:58:51;;;;;;;3.28;2.70;;;;;;;;;;8248801;28;20729;-72
2023/04/28 22:02:51;;;;;;;3.28;1.98;;;;;;;;;;8249559;28;20045;-72
2023/04/28 22:06:52;;;;;;;5.57;1.60;;;;;;;;;;8249794;28;20088;-71
2023/04/28 22:10:52;;;;;;;1.55;1.42;;;;;;;;;;8249090;28;20291;-72
2023/04/28 22:14:52;;;;;;;1.83;1.30;;;;;;;;;;8250830;28;20041;-71
2023/04/28 22:18:52;;;;;;;9.57;3.65;;;;;;;;;;8249782;28;21203;-71
2023/04/28 22:22:53;;;;;;;4.05;2.03;;;;;;;;;;8257328;28;20056;-71
2023/04/28 22:26:53;;;;;;;4.20;1.60;;;;;;;;;;8253879;28;20756;-71
2023/04/28 22:30:54;;;;;;;1.75;1.60;;;;;;;;;;8248771;28;20521;-71
2023/04/28 22:34:54;;;;;;;1.40;1.30;;;;;;;;;;8252346;28;20108;-71
2023/04/28 22:38:54;;;;;;;2.13;1.40;;;;;;;;;;8248667;28;20272;-71
2023/04/28 22:42:54;;;;;;;2.30;1.40;;;;;;;;;;8250306;28;20042;-71
2023/04/28 22:46:54;;;;;;;3.53;1.27;;;;;;;;;;8261741;28;20313;-71
2023/04/28 22:50:54;;;;;;;2.80;2.00;;;;;;;;;;8254883;28;20717;-71
2023/04/28 22:54:55;;;;;;;2.45;1.60;;;;;;;;;;8257137;28;20022;-71
2023/04/28 22:58:55;;;;;;;1.63;1.45;;;;;;;;;;8255622;28;20030;-71
2023/04/28 23:02:55;;;;;;;5.30;1.42;;;;;;;;;;8254892;28;20026;-71
2023/04/28 23:06:55;;;;;;;1.52;1.42;;;;;;;;;;8261666;28;20033;-71
2023/04/28 23:10:56;;;;;;;5.32;1.50;;;;;;;;;;8258945;28;20540;-71
2023/04/28 23:14:56;;;;;;;2.55;1.70;;;;;;;;;;8254960;28;20223;-71
2023/04/28 23:18:56;;;;;;;5.65;3.08;;;;;;;;;;8272481;28;20037;-71
2023/04/28 23:22:58;;;;;;;8.18;3.40;;;;;;;;;;8254520;28;20022;-71
2023/04/28 23:26:58;;;;;;;7.97;3.67;;;;;;;;;;8262865;28;20038;-71
2023/04/28 23:30:58;;;;;;;7.57;3.50;;;;;;;;;;8258878;28;20038;-71
2023/04/28 23:34:58;;;;;;;2.88;2.10;;;;;;;;;;8262672;28;20285;-71
2023/04/28 23:38:59;;;;;;;3.83;1.60;;;;;;;;;;8256860;28;20022;-71
2023/04/28 23:42:59;;;;;;;1.67;1.40;;;;;;;;;;8255467;28;20076;-70
2023/04/28 23:46:59;;;;;;;2.58;1.30;;;;;;;;;;8256817;28;20034;-71
2023/04/28 23:50:59;;;;;;;1.05;0.90;;;;;;;;;;8258206;28;20539;-71
2023/04/28 23:54:59;;;;;;;1.00;0.90;;;;;;;;;;8256748;28;20137;-71
2023/04/28 23:59:00;;;;;;;1.05;0.80;;;;;;;;;;8254732;28;20327;-71
